sensor_id;sensor_type;location;lat;lon;timestamp;P1;durP1;ratioP1;P2;durP2;ratioP2
65667;SDS011;52369;52.542;13.232;2023-05-29T00:00:50;8.82;;;3.95;;
65667;SDS011;52369;52.542;13.232;2023-05-29T00:03:17;9.57;;;4.00;;
65667;SDS011;52369;52.542;13.232;2023-05-29T00:05:43;12.50;;;5.57;;
65667;SDS011;52369;52.542;13.232;2023-05-29T00:08:09;10.43;;;3.97;;
65667;SDS011;52369;52.542;13.232;2023-05-29T00:10:35;9.05;;;3.80;;
65667;SDS011;52369;52.542;13.232;2023-05-29T00:13:02;10.32;;;3.88;;
65667;SDS011;52369;52.542;13.232;2023-05-29T00:15:28;64.05;;;27.27;;
65667;SDS011;52369;52.542;13.232;2023-05-29T00:17:55;25.67;;;11.27;;
65667;SDS011;52369;52.542;13.232;2023-05-29T00:20:21;16.15;;;6.13;;
65667;SDS011;52369;52.542;13.232;2023-05-29T00:22:47;17.58;;;8.07;;
65667;SDS011;52369;52.542;13.232;2023-05-29T00:25:14;12.35;;;5.25;;
65667;SDS011;52369;52.542;13.232;2023-05-29T00:27:41;7.38;;;4.03;;
65667;SDS011;52369;52.542;13.232;2023-05-29T00:30:07;15.55;;;6.53;;
65667;SDS011;52369;52.542;13.232;2023-05-29T00:32:33;10.30;;;4.43;;
65667;SDS011;52369;52.542;13.232;2023-05-29T00:34:59;11.68;;;5.20;;
65667;SDS011;52369;52.542;13.232;2023-05-29T00:37:25;11.02;;;4.70;;
65667;SDS011;52369;52.542;13.232;2023-05-29T00:39:51;7.57;;;3.63;;
65667;SDS011;52369;52.542;13.232;2023-05-29T00:42:17;15.55;;;6.47;;
65667;SDS011;52369;52.542;13.232;2023-05-29T00:44:43;13.88;;;6.88;;
65667;SDS011;52369;52.542;13.232;2023-05-29T00:47:09;15.20;;;6.30;;
65667;SDS011;52369;52.542;13.232;2023-05-29T00:49:36;16.55;;;7.60;;
65667;SDS011;52369;52.542;13.232;2023-05-29T00:52:02;10.93;;;4.50;;
65667;SDS011;52369;52.542;13.232;2023-05-29T00:54:30;14.23;;;5.65;;
65667;SDS011;52369;52.542;13.232;2023-05-29T00:56:56;13.02;;;5.38;;
65667;SDS011;52369;52.542;13.232;2023-05-29T00:59:23;13.43;;;4.75;;
65667;SDS011;52369;52.542;13.232;2023-05-29T01:01:50;9.23;;;3.60;;
65667;SDS011;52369;52.542;13.232;2023-05-29T01:04:16;9.18;;;4.30;;
65667;SDS011;52369;52.542;13.232;2023-05-29T01:06:42;11.55;;;3.97;;
65667;SDS011;52369;52.542;13.232;2023-05-29T01:09:09;10.80;;;4.22;;
65667;SDS011;52369;52.542;13.232;2023-05-29T01:11:47;9.82;;;4.60;;
65667;SDS011;52369;52.542;13.232;2023-05-29T01:22:05;24.73;;;9.95;;
65667;SDS011;52369;52.542;13.232;2023-05-29T01:27:08;12.85;;;5.13;;
65667;SDS011;52369;52.542;13.232;2023-05-29T01:29:36;12.88;;;5.28;;
65667;SDS011;52369;52.542;13.232;2023-05-29T01:32:03;14.82;;;6.38;;
65667;SDS011;52369;52.542;13.232;2023-05-29T01:34:30;20.38;;;7.63;;
65667;SDS011;52369;52.542;13.232;2023-05-29T01:36:56;14.00;;;6.05;;
65667;SDS011;52369;52.542;13.232;2023-05-29T01:39:23;11.10;;;4.40;;
65667;SDS011;52369;52.542;13.232;2023-05-29T01:41:49;9.32;;;4.30;;
65667;SDS011;52369;52.542;13.232;2023-05-29T01:44:16;10.55;;;4.00;;
65667;SDS011;52369;52.542;13.232;2023-05-29T01:46:43;11.00;;;4.60;;
65667;SDS011;52369;52.542;13.232;2023-05-29T01:49:11;9.45;;;4.57;;
65667;SDS011;52369;52.542;13.232;2023-05-29T01:51:40;11.07;;;4.35;;
65667;SDS011;52369;52.542;13.232;2023-05-29T01:54:06;8.70;;;4.30;;
65667;SDS011;52369;52.542;13.232;2023-05-29T01:56:33;11.68;;;4.07;;
65667;SDS011;52369;52.542;13.232;2023-05-29T01:59:00;10.65;;;4.03;;
65667;SDS011;52369;52.542;13.232;2023-05-29T02:01:27;8.27;;;4.13;;
65667;SDS011;52369;52.542;13.232;2023-05-29T02:03:53;15.85;;;4.38;;
65667;SDS011;52369;52.542;13.232;2023-05-29T02:06:19;11.38;;;4.40;;
65667;SDS011;52369;52.542;13.232;2023-05-29T02:08:46;8.70;;;4.05;;
65667;SDS011;52369;52.542;13.232;2023-05-29T02:11:12;10.30;;;4.90;;
65667;SDS011;52369;52.542;13.232;2023-05-29T02:13:38;11.48;;;3.63;;
65667;SDS011;52369;52.542;13.232;2023-05-29T02:16:04;8.50;;;4.15;;
65667;SDS011;52369;52.542;13.232;2023-05-29T02:18:30;9.27;;;4.10;;
65667;SDS011;52369;52.542;13.232;2023-05-29T02:20:56;8.27;;;4.07;;
65667;SDS011;52369;52.542;13.232;2023-05-29T02:23:22;10.60;;;4.35;;
65667;SDS011;52369;52.542;13.232;2023-05-29T02:25:48;10.18;;;4.68;;
65667;SDS011;52369;52.542;13.232;2023-05-29T02:28:14;10.00;;;4.10;;
65667;SDS011;52369;52.542;13.232;2023-05-29T02:30:40;14.75;;;4.45;;
65667;SDS011;52369;52.542;13.232;2023-05-29T02:33:07;10.75;;;3.90;;
65667;SDS011;52369;52.542;13.232;2023-05-29T02:35:33;10.35;;;3.85;;
65667;SDS011;52369;52.542;13.232;2023-05-29T02:37:59;9.18;;;4.32;;
65667;SDS011;52369;52.542;13.232;2023-05-29T02:40:25;11.15;;;3.95;;
65667;SDS011;52369;52.542;13.232;2023-05-29T02:42:51;11.68;;;5.05;;
65667;SDS011;52369;52.542;13.232;2023-05-29T02:45:18;9.65;;;4.03;;
65667;SDS011;52369;52.542;13.232;2023-05-29T02:47:44;133.60;;;60.55;;
65667;SDS011;52369;52.542;13.232;2023-05-29T02:50:10;176.35;;;76.53;;
65667;SDS011;52369;52.542;13.232;2023-05-29T02:52:39;108.40;;;47.22;;
65667;SDS011;52369;52.542;13.232;2023-05-29T02:55:05;35.33;;;17.88;;
65667;SDS011;52369;52.542;13.232;2023-05-29T02:57:32;14.27;;;5.82;;
65667;SDS011;52369;52.542;13.232;2023-05-29T02:59:58;9.90;;;4.82;;
65667;SDS011;52369;52.542;13.232;2023-05-29T03:02:25;10.82;;;5.10;;
65667;SDS011;52369;52.542;13.232;2023-05-29T03:04:52;10.00;;;4.50;;
65667;SDS011;52369;52.542;13.232;2023-05-29T03:07:18;9.50;;;4.60;;
65667;SDS011;52369;52.542;13.232;2023-05-29T03:09:44;9.43;;;4.47;;
65667;SDS011;52369;52.542;13.232;2023-05-29T03:12:10;12.13;;;4.28;;
65667;SDS011;52369;52.542;13.232;2023-05-29T03:14:36;9.68;;;4.28;;
65667;SDS011;52369;52.542;13.232;2023-05-29T03:17:05;11.52;;;4.22;;
65667;SDS011;52369;52.542;13.232;2023-05-29T03:19:32;5.95;;;3.42;;
65667;SDS011;52369;52.542;13.232;2023-05-29T03:21:58;9.43;;;4.78;;
65667;SDS011;52369;52.542;13.232;2023-05-29T03:24:24;10.55;;;5.00;;
65667;SDS011;52369;52.542;13.232;2023-05-29T03:26:50;10.63;;;5.20;;
65667;SDS011;52369;52.542;13.232;2023-05-29T03:29:17;7.72;;;4.03;;
65667;SDS011;52369;52.542;13.232;2023-05-29T03:31:43;9.90;;;3.97;;
65667;SDS011;52369;52.542;13.232;2023-05-29T03:34:09;12.00;;;3.95;;
65667;SDS011;52369;52.542;13.232;2023-05-29T03:36:35;9.57;;;4.03;;
65667;SDS011;52369;52.542;13.232;2023-05-29T03:39:04;8.73;;;4.15;;
65667;SDS011;52369;52.542;13.232;2023-05-29T03:41:31;10.25;;;4.30;;
65667;SDS011;52369;52.542;13.232;2023-05-29T03:43:57;8.60;;;4.38;;
65667;SDS011;52369;52.542;13.232;2023-05-29T03:46:23;10.65;;;4.10;;
65667;SDS011;52369;52.542;13.232;2023-05-29T03:48:49;8.20;;;3.65;;
65667;SDS011;52369;52.542;13.232;2023-05-29T03:51:15;11.38;;;4.28;;
65667;SDS011;52369;52.542;13.232;2023-05-29T03:53:41;7.88;;;3.90;;
65667;SDS011;52369;52.542;13.232;2023-05-29T03:56:07;9.05;;;3.88;;
65667;SDS011;52369;52.542;13.232;2023-05-29T03:58:33;9.30;;;3.75;;
65667;SDS011;52369;52.542;13.232;2023-05-29T04:01:01;8.52;;;3.75;;
65667;SDS011;52369;52.542;13.232;2023-05-29T04:03:27;9.55;;;3.90;;
65667;SDS011;52369;52.542;13.232;2023-05-29T04:05:54;9.10;;;4.00;;
65667;SDS011;52369;52.542;13.232;2023-05-29T04:08:20;9.18;;;3.70;;
65667;SDS011;52369;52.542;13.232;2023-05-29T04:10:46;9.13;;;3.83;;
65667;SDS011;52369;52.542;13.232;2023-05-29T04:13:12;8.85;;;3.85;;
65667;SDS011;52369;52.542;13.232;2023-05-29T04:15:38;10.32;;;3.85;;
65667;SDS011;52369;52.542;13.232;2023-05-29T04:18:04;9.32;;;3.75;;
65667;SDS011;52369;52.542;13.232;2023-05-29T04:20:30;9.32;;;4.00;;
65667;SDS011;52369;52.542;13.232;2023-05-29T04:22:56;8.02;;;3.88;;
65667;SDS011;52369;52.542;13.232;2023-05-29T04:25:22;7.88;;;3.40;;
65667;SDS011;52369;52.542;13.232;2023-05-29T04:27:48;8.98;;;3.83;;
65667;SDS011;52369;52.542;13.232;2023-05-29T04:30:15;9.48;;;4.07;;
65667;SDS011;52369;52.542;13.232;2023-05-29T04:32:41;11.02;;;3.90;;
65667;SDS011;52369;52.542;13.232;2023-05-29T04:35:07;9.93;;;4.35;;
65667;SDS011;52369;52.542;13.232;2023-05-29T04:37:35;8.38;;;3.83;;
65667;SDS011;52369;52.542;13.232;2023-05-29T04:40:05;7.50;;;3.72;;
65667;SDS011;52369;52.542;13.232;2023-05-29T04:42:38;8.50;;;4.20;;
65667;SDS011;52369;52.542;13.232;2023-05-29T04:45:05;10.30;;;3.70;;
65667;SDS011;52369;52.542;13.232;2023-05-29T04:47:32;7.65;;;3.63;;
65667;SDS011;52369;52.542;13.232;2023-05-29T04:49:58;10.55;;;3.67;;
65667;SDS011;52369;52.542;13.232;2023-05-29T04:52:25;9.05;;;3.88;;
65667;SDS011;52369;52.542;13.232;2023-05-29T04:54:51;10.48;;;3.97;;
65667;SDS011;52369;52.542;13.232;2023-05-29T04:57:17;7.95;;;3.55;;
65667;SDS011;52369;52.542;13.232;2023-05-29T04:59:43;9.50;;;3.90;;
65667;SDS011;52369;52.542;13.232;2023-05-29T05:02:09;7.90;;;3.72;;
65667;SDS011;52369;52.542;13.232;2023-05-29T05:04:35;9.80;;;3.55;;
65667;SDS011;52369;52.542;13.232;2023-05-29T05:07:01;9.52;;;3.97;;
65667;SDS011;52369;52.542;13.232;2023-05-29T05:09:28;6.63;;;3.53;;
65667;SDS011;52369;52.542;13.232;2023-05-29T05:11:54;9.60;;;4.32;;
65667;SDS011;52369;52.542;13.232;2023-05-29T05:14:20;6.60;;;3.50;;
65667;SDS011;52369;52.542;13.232;2023-05-29T05:16:47;7.18;;;3.35;;
65667;SDS011;52369;52.542;13.232;2023-05-29T05:19:13;6.07;;;3.35;;
65667;SDS011;52369;52.542;13.232;2023-05-29T05:21:39;6.88;;;3.40;;
65667;SDS011;52369;52.542;13.232;2023-05-29T05:24:05;6.85;;;3.70;;
65667;SDS011;52369;52.542;13.232;2023-05-29T05:26:31;7.60;;;3.63;;
65667;SDS011;52369;52.542;13.232;2023-05-29T05:28:57;5.55;;;2.88;;
65667;SDS011;52369;52.542;13.232;2023-05-29T05:31:23;7.15;;;3.70;;
65667;SDS011;52369;52.542;13.232;2023-05-29T05:33:50;7.07;;;3.47;;
65667;SDS011;52369;52.542;13.232;2023-05-29T05:36:16;7.47;;;3.35;;
65667;SDS011;52369;52.542;13.232;2023-05-29T05:38:42;6.43;;;3.10;;
65667;SDS011;52369;52.542;13.232;2023-05-29T05:41:08;6.20;;;3.13;;
65667;SDS011;52369;52.542;13.232;2023-05-29T05:43:35;6.60;;;3.45;;
65667;SDS011;52369;52.542;13.232;2023-05-29T05:46:01;6.50;;;3.28;;
65667;SDS011;52369;52.542;13.232;2023-05-29T05:48:27;6.00;;;3.03;;
65667;SDS011;52369;52.542;13.232;2023-05-29T05:50:53;7.00;;;4.07;;
65667;SDS011;52369;52.542;13.232;2023-05-29T05:53:19;7.03;;;3.47;;
65667;SDS011;52369;52.542;13.232;2023-05-29T05:55:46;8.65;;;3.50;;
65667;SDS011;52369;52.542;13.232;2023-05-29T05:58:12;7.32;;;3.28;;
65667;SDS011;52369;52.542;13.232;2023-05-29T06:00:39;7.22;;;3.35;;
65667;SDS011;52369;52.542;13.232;2023-05-29T06:03:07;5.72;;;3.15;;
65667;SDS011;52369;52.542;13.232;2023-05-29T06:05:33;7.75;;;3.47;;
65667;SDS011;52369;52.542;13.232;2023-05-29T06:08:01;5.55;;;3.22;;
65667;SDS011;52369;52.542;13.232;2023-05-29T06:10:27;6.55;;;3.53;;
65667;SDS011;52369;52.542;13.232;2023-05-29T06:12:53;6.65;;;3.17;;
65667;SDS011;52369;52.542;13.232;2023-05-29T06:15:19;9.00;;;3.00;;
65667;SDS011;52369;52.542;13.232;2023-05-29T06:17:45;11.55;;;5.20;;
65667;SDS011;52369;52.542;13.232;2023-05-29T06:20:11;7.68;;;3.22;;
65667;SDS011;52369;52.542;13.232;2023-05-29T06:22:38;5.20;;;2.72;;
65667;SDS011;52369;52.542;13.232;2023-05-29T06:25:05;5.47;;;3.00;;
65667;SDS011;52369;52.542;13.232;2023-05-29T06:27:31;6.13;;;3.08;;
65667;SDS011;52369;52.542;13.232;2023-05-29T06:29:57;7.93;;;3.80;;
65667;SDS011;52369;52.542;13.232;2023-05-29T06:32:23;4.45;;;2.72;;
65667;SDS011;52369;52.542;13.232;2023-05-29T06:34:49;5.80;;;2.95;;
65667;SDS011;52369;52.542;13.232;2023-05-29T06:37:15;9.13;;;3.80;;
65667;SDS011;52369;52.542;13.232;2023-05-29T06:39:44;7.25;;;3.20;;
65667;SDS011;52369;52.542;13.232;2023-05-29T06:42:10;4.35;;;2.70;;
65667;SDS011;52369;52.542;13.232;2023-05-29T06:44:36;9.25;;;4.90;;
65667;SDS011;52369;52.542;13.232;2023-05-29T06:47:02;5.50;;;3.33;;
65667;SDS011;52369;52.542;13.232;2023-05-29T06:49:28;5.35;;;3.08;;
65667;SDS011;52369;52.542;13.232;2023-05-29T06:51:54;8.85;;;3.75;;
65667;SDS011;52369;52.542;13.232;2023-05-29T06:54:20;6.85;;;3.50;;
65667;SDS011;52369;52.542;13.232;2023-05-29T06:56:46;20.90;;;9.75;;
65667;SDS011;52369;52.542;13.232;2023-05-29T06:59:12;9.68;;;4.15;;
65667;SDS011;52369;52.542;13.232;2023-05-29T07:01:38;7.95;;;3.90;;
65667;SDS011;52369;52.542;13.232;2023-05-29T07:04:04;6.00;;;3.03;;
65667;SDS011;52369;52.542;13.232;2023-05-29T07:06:31;6.28;;;3.13;;
65667;SDS011;52369;52.542;13.232;2023-05-29T07:08:58;7.57;;;4.10;;
65667;SDS011;52369;52.542;13.232;2023-05-29T07:11:25;7.47;;;4.50;;
65667;SDS011;52369;52.542;13.232;2023-05-29T07:13:51;7.20;;;3.40;;
65667;SDS011;52369;52.542;13.232;2023-05-29T07:16:18;10.48;;;3.90;;
65667;SDS011;52369;52.542;13.232;2023-05-29T07:18:44;9.18;;;3.58;;
65667;SDS011;52369;52.542;13.232;2023-05-29T07:21:10;5.95;;;3.13;;
65667;SDS011;52369;52.542;13.232;2023-05-29T07:23:36;4.35;;;2.30;;
65667;SDS011;52369;52.542;13.232;2023-05-29T07:26:02;8.65;;;4.28;;
65667;SDS011;52369;52.542;13.232;2023-05-29T07:28:28;4.10;;;2.90;;
65667;SDS011;52369;52.542;13.232;2023-05-29T07:30:54;6.10;;;3.20;;
65667;SDS011;52369;52.542;13.232;2023-05-29T07:33:20;7.88;;;3.50;;
65667;SDS011;52369;52.542;13.232;2023-05-29T07:35:47;7.90;;;3.28;;
65667;SDS011;52369;52.542;13.232;2023-05-29T07:38:14;10.80;;;4.90;;
65667;SDS011;52369;52.542;13.232;2023-05-29T07:40:40;16.10;;;4.85;;
65667;SDS011;52369;52.542;13.232;2023-05-29T07:43:06;5.97;;;3.45;;
65667;SDS011;52369;52.542;13.232;2023-05-29T07:45:32;5.40;;;3.22;;
65667;SDS011;52369;52.542;13.232;2023-05-29T07:47:58;5.30;;;2.92;;
65667;SDS011;52369;52.542;13.232;2023-05-29T07:50:25;4.68;;;2.72;;
65667;SDS011;52369;52.542;13.232;2023-05-29T07:52:51;5.03;;;3.00;;
65667;SDS011;52369;52.542;13.232;2023-05-29T07:55:18;3.78;;;2.40;;
65667;SDS011;52369;52.542;13.232;2023-05-29T07:57:44;5.07;;;2.70;;
65667;SDS011;52369;52.542;13.232;2023-05-29T08:00:10;9.23;;;3.35;;
65667;SDS011;52369;52.542;13.232;2023-05-29T08:02:38;5.53;;;2.95;;
65667;SDS011;52369;52.542;13.232;2023-05-29T08:05:04;5.30;;;3.03;;
65667;SDS011;52369;52.542;13.232;2023-05-29T08:07:32;4.53;;;2.55;;
65667;SDS011;52369;52.542;13.232;2023-05-29T08:09:58;5.47;;;3.30;;
65667;SDS011;52369;52.542;13.232;2023-05-29T08:12:24;6.70;;;3.35;;
65667;SDS011;52369;52.542;13.232;2023-05-29T08:14:51;5.05;;;2.80;;
65667;SDS011;52369;52.542;13.232;2023-05-29T08:17:17;5.60;;;3.20;;
65667;SDS011;52369;52.542;13.232;2023-05-29T08:19:43;4.72;;;2.92;;
65667;SDS011;52369;52.542;13.232;2023-05-29T08:22:11;8.70;;;3.70;;
65667;SDS011;52369;52.542;13.232;2023-05-29T08:24:37;7.80;;;3.88;;
65667;SDS011;52369;52.542;13.232;2023-05-29T08:27:04;6.85;;;3.28;;
65667;SDS011;52369;52.542;13.232;2023-05-29T08:29:30;5.63;;;2.58;;
65667;SDS011;52369;52.542;13.232;2023-05-29T08:31:56;5.47;;;2.78;;
65667;SDS011;52369;52.542;13.232;2023-05-29T08:34:22;6.30;;;3.50;;
65667;SDS011;52369;52.542;13.232;2023-05-29T08:36:48;4.32;;;2.50;;
65667;SDS011;52369;52.542;13.232;2023-05-29T08:39:16;5.30;;;2.50;;
65667;SDS011;52369;52.542;13.232;2023-05-29T08:44:14;7.68;;;3.17;;
65667;SDS011;52369;52.542;13.232;2023-05-29T08:46:43;4.80;;;2.78;;
65667;SDS011;52369;52.542;13.232;2023-05-29T08:49:10;4.03;;;2.88;;
65667;SDS011;52369;52.542;13.232;2023-05-29T08:51:40;4.68;;;2.50;;
65667;SDS011;52369;52.542;13.232;2023-05-29T08:54:08;4.25;;;2.60;;
65667;SDS011;52369;52.542;13.232;2023-05-29T08:56:35;7.07;;;3.35;;
65667;SDS011;52369;52.542;13.232;2023-05-29T08:59:01;6.65;;;3.00;;
65667;SDS011;52369;52.542;13.232;2023-05-29T09:01:28;10.10;;;4.95;;
65667;SDS011;52369;52.542;13.232;2023-05-29T09:03:55;8.18;;;4.30;;
65667;SDS011;52369;52.542;13.232;2023-05-29T09:06:22;12.68;;;6.07;;
65667;SDS011;52369;52.542;13.232;2023-05-29T09:08:50;9.00;;;3.97;;
65667;SDS011;52369;52.542;13.232;2023-05-29T09:11:17;7.32;;;3.00;;
65667;SDS011;52369;52.542;13.232;2023-05-29T09:13:43;4.13;;;2.30;;
65667;SDS011;52369;52.542;13.232;2023-05-29T09:16:09;8.57;;;4.32;;
65667;SDS011;52369;52.542;13.232;2023-05-29T09:18:35;4.70;;;2.78;;
65667;SDS011;52369;52.542;13.232;2023-05-29T09:21:06;4.82;;;2.70;;
65667;SDS011;52369;52.542;13.232;2023-05-29T09:23:33;7.43;;;3.22;;
65667;SDS011;52369;52.542;13.232;2023-05-29T09:26:01;5.82;;;3.13;;
65667;SDS011;52369;52.542;13.232;2023-05-29T09:28:28;6.30;;;3.20;;
65667;SDS011;52369;52.542;13.232;2023-05-29T09:30:56;7.32;;;3.90;;
65667;SDS011;52369;52.542;13.232;2023-05-29T09:33:23;6.68;;;3.35;;
65667;SDS011;52369;52.542;13.232;2023-05-29T09:35:51;9.75;;;4.75;;
65667;SDS011;52369;52.542;13.232;2023-05-29T09:38:18;6.57;;;3.00;;
65667;SDS011;52369;52.542;13.232;2023-05-29T09:40:44;7.88;;;3.78;;
65667;SDS011;52369;52.542;13.232;2023-05-29T09:43:12;6.78;;;3.00;;
65667;SDS011;52369;52.542;13.232;2023-05-29T09:45:39;9.40;;;4.03;;
65667;SDS011;52369;52.542;13.232;2023-05-29T09:48:06;6.97;;;3.05;;
65667;SDS011;52369;52.542;13.232;2023-05-29T09:50:33;7.05;;;3.10;;
65667;SDS011;52369;52.542;13.232;2023-05-29T09:52:59;7.07;;;3.20;;
65667;SDS011;52369;52.542;13.232;2023-05-29T09:55:27;8.90;;;3.88;;
65667;SDS011;52369;52.542;13.232;2023-05-29T09:57:53;7.30;;;3.60;;
65667;SDS011;52369;52.542;13.232;2023-05-29T10:00:21;6.50;;;3.20;;
65667;SDS011;52369;52.542;13.232;2023-05-29T10:02:48;6.57;;;3.13;;
65667;SDS011;52369;52.542;13.232;2023-05-29T10:05:14;7.68;;;4.05;;
65667;SDS011;52369;52.542;13.232;2023-05-29T10:07:43;18.27;;;7.43;;
65667;SDS011;52369;52.542;13.232;2023-05-29T10:10:11;9.52;;;2.90;;
65667;SDS011;52369;52.542;13.232;2023-05-29T10:12:38;11.13;;;4.55;;
65667;SDS011;52369;52.542;13.232;2023-05-29T10:15:06;7.55;;;3.55;;
65667;SDS011;52369;52.542;13.232;2023-05-29T10:17:36;6.05;;;3.00;;
65667;SDS011;52369;52.542;13.232;2023-05-29T10:20:05;6.93;;;3.45;;
65667;SDS011;52369;52.542;13.232;2023-05-29T10:22:32;5.90;;;2.75;;
65667;SDS011;52369;52.542;13.232;2023-05-29T10:24:59;6.07;;;3.30;;
65667;SDS011;52369;52.542;13.232;2023-05-29T10:27:25;6.00;;;2.80;;
65667;SDS011;52369;52.542;13.232;2023-05-29T10:29:53;5.82;;;2.92;;
65667;SDS011;52369;52.542;13.232;2023-05-29T10:35:31;4.85;;;2.70;;
65667;SDS011;52369;52.542;13.232;2023-05-29T10:38:10;6.20;;;3.05;;
65667;SDS011;52369;52.542;13.232;2023-05-29T10:40:37;6.47;;;3.45;;
65667;SDS011;52369;52.542;13.232;2023-05-29T10:43:03;4.22;;;2.70;;
65667;SDS011;52369;52.542;13.232;2023-05-29T10:53:09;6.93;;;3.70;;
65667;SDS011;52369;52.542;13.232;2023-05-29T10:55:38;5.97;;;2.95;;
65667;SDS011;52369;52.542;13.232;2023-05-29T10:58:08;5.78;;;2.83;;
65667;SDS011;52369;52.542;13.232;2023-05-29T11:00:39;3.67;;;2.65;;
65667;SDS011;52369;52.542;13.232;2023-05-29T11:03:09;5.63;;;2.95;;
65667;SDS011;52369;52.542;13.232;2023-05-29T11:08:24;7.00;;;3.10;;
65667;SDS011;52369;52.542;13.232;2023-05-29T11:10:55;4.78;;;2.40;;
65667;SDS011;52369;52.542;13.232;2023-05-29T11:13:26;5.95;;;3.05;;
65667;SDS011;52369;52.542;13.232;2023-05-29T11:18:31;6.32;;;2.88;;
65667;SDS011;52369;52.542;13.232;2023-05-29T11:21:03;7.20;;;3.53;;
65667;SDS011;52369;52.542;13.232;2023-05-29T11:23:31;5.25;;;3.40;;
65667;SDS011;52369;52.542;13.232;2023-05-29T11:25:57;5.97;;;3.08;;
65667;SDS011;52369;52.542;13.232;2023-05-29T11:28:25;5.03;;;3.08;;
65667;SDS011;52369;52.542;13.232;2023-05-29T11:30:53;6.13;;;2.83;;
65667;SDS011;52369;52.542;13.232;2023-05-29T11:33:24;8.75;;;4.45;;
65667;SDS011;52369;52.542;13.232;2023-05-29T11:36:00;4.22;;;2.50;;
65667;SDS011;52369;52.542;13.232;2023-05-29T11:38:26;5.50;;;3.20;;
65667;SDS011;52369;52.542;13.232;2023-05-29T11:40:56;8.18;;;3.40;;
65667;SDS011;52369;52.542;13.232;2023-05-29T11:43:23;6.43;;;2.78;;
65667;SDS011;52369;52.542;13.232;2023-05-29T11:45:50;4.35;;;2.30;;
65667;SDS011;52369;52.542;13.232;2023-05-29T11:48:16;6.00;;;2.60;;
65667;SDS011;52369;52.542;13.232;2023-05-29T11:50:42;5.30;;;2.58;;
65667;SDS011;52369;52.542;13.232;2023-05-29T11:53:08;6.13;;;2.75;;
65667;SDS011;52369;52.542;13.232;2023-05-29T11:55:35;6.05;;;2.80;;
65667;SDS011;52369;52.542;13.232;2023-05-29T11:58:02;6.68;;;2.88;;
65667;SDS011;52369;52.542;13.232;2023-05-29T12:00:32;6.60;;;3.17;;
65667;SDS011;52369;52.542;13.232;2023-05-29T12:02:58;11.43;;;6.35;;
65667;SDS011;52369;52.542;13.232;2023-05-29T12:05:32;7.70;;;3.42;;
65667;SDS011;52369;52.542;13.232;2023-05-29T12:07:58;6.50;;;2.60;;
65667;SDS011;52369;52.542;13.232;2023-05-29T12:10:29;5.55;;;2.58;;
65667;SDS011;52369;52.542;13.232;2023-05-29T12:12:58;7.32;;;2.80;;
65667;SDS011;52369;52.542;13.232;2023-05-29T12:15:24;3.97;;;2.70;;
65667;SDS011;52369;52.542;13.232;2023-05-29T12:17:51;5.15;;;2.70;;
65667;SDS011;52369;52.542;13.232;2023-05-29T12:20:18;13.35;;;7.45;;
65667;SDS011;52369;52.542;13.232;2023-05-29T12:22:45;7.72;;;3.35;;
65667;SDS011;52369;52.542;13.232;2023-05-29T12:25:15;6.03;;;2.55;;
65667;SDS011;52369;52.542;13.232;2023-05-29T12:27:42;7.10;;;3.95;;
65667;SDS011;52369;52.542;13.232;2023-05-29T12:30:26;15.02;;;6.20;;
65667;SDS011;52369;52.542;13.232;2023-05-29T12:32:52;5.35;;;2.88;;
65667;SDS011;52369;52.542;13.232;2023-05-29T12:37:45;5.45;;;3.00;;
65667;SDS011;52369;52.542;13.232;2023-05-29T12:40:22;6.32;;;3.40;;
65667;SDS011;52369;52.542;13.232;2023-05-29T12:42:48;8.57;;;3.78;;
65667;SDS011;52369;52.542;13.232;2023-05-29T12:45:15;6.40;;;3.50;;
65667;SDS011;52369;52.542;13.232;2023-05-29T12:47:50;7.20;;;3.22;;
65667;SDS011;52369;52.542;13.232;2023-05-29T12:52:52;9.45;;;2.70;;
65667;SDS011;52369;52.542;13.232;2023-05-29T12:55:18;3.80;;;2.63;;
65667;SDS011;52369;52.542;13.232;2023-05-29T12:57:44;5.93;;;3.05;;
65667;SDS011;52369;52.542;13.232;2023-05-29T13:00:11;5.90;;;2.70;;
65667;SDS011;52369;52.542;13.232;2023-05-29T13:02:37;10.05;;;5.10;;
65667;SDS011;52369;52.542;13.232;2023-05-29T13:05:04;4.40;;;2.58;;
65667;SDS011;52369;52.542;13.232;2023-05-29T13:07:31;5.88;;;2.85;;
65667;SDS011;52369;52.542;13.232;2023-05-29T13:09:57;5.47;;;2.70;;
65667;SDS011;52369;52.542;13.232;2023-05-29T13:12:23;5.72;;;2.90;;
65667;SDS011;52369;52.542;13.232;2023-05-29T13:14:49;4.13;;;2.60;;
65667;SDS011;52369;52.542;13.232;2023-05-29T13:17:15;4.90;;;2.55;;
65667;SDS011;52369;52.542;13.232;2023-05-29T13:19:42;5.63;;;2.60;;
65667;SDS011;52369;52.542;13.232;2023-05-29T13:22:08;5.40;;;2.58;;
65667;SDS011;52369;52.542;13.232;2023-05-29T13:24:34;5.10;;;3.00;;
65667;SDS011;52369;52.542;13.232;2023-05-29T13:27:00;7.57;;;3.05;;
65667;SDS011;52369;52.542;13.232;2023-05-29T13:29:27;5.38;;;2.67;;
65667;SDS011;52369;52.542;13.232;2023-05-29T13:31:53;4.03;;;2.67;;
65667;SDS011;52369;52.542;13.232;2023-05-29T13:34:19;24.23;;;10.45;;
65667;SDS011;52369;52.542;13.232;2023-05-29T13:36:47;5.53;;;2.88;;
65667;SDS011;52369;52.542;13.232;2023-05-29T13:39:13;6.43;;;3.25;;
65667;SDS011;52369;52.542;13.232;2023-05-29T13:41:39;7.22;;;3.00;;
65667;SDS011;52369;52.542;13.232;2023-05-29T13:44:05;4.85;;;2.45;;
65667;SDS011;52369;52.542;13.232;2023-05-29T13:46:32;4.63;;;2.30;;
65667;SDS011;52369;52.542;13.232;2023-05-29T13:48:58;7.90;;;3.45;;
65667;SDS011;52369;52.542;13.232;2023-05-29T13:51:24;5.47;;;2.75;;
65667;SDS011;52369;52.542;13.232;2023-05-29T13:53:50;7.28;;;3.35;;
65667;SDS011;52369;52.542;13.232;2023-05-29T13:56:16;8.75;;;3.28;;
65667;SDS011;52369;52.542;13.232;2023-05-29T13:58:42;5.65;;;2.33;;
65667;SDS011;52369;52.542;13.232;2023-05-29T14:01:08;8.63;;;3.97;;
65667;SDS011;52369;52.542;13.232;2023-05-29T14:03:34;7.10;;;3.15;;
65667;SDS011;52369;52.542;13.232;2023-05-29T14:06:00;7.82;;;3.28;;
65667;SDS011;52369;52.542;13.232;2023-05-29T14:08:30;7.40;;;3.20;;
65667;SDS011;52369;52.542;13.232;2023-05-29T14:10:56;6.75;;;2.78;;
65667;SDS011;52369;52.542;13.232;2023-05-29T14:13:22;5.00;;;2.60;;
65667;SDS011;52369;52.542;13.232;2023-05-29T14:15:48;10.48;;;3.92;;
65667;SDS011;52369;52.542;13.232;2023-05-29T14:18:14;7.18;;;3.60;;
65667;SDS011;52369;52.542;13.232;2023-05-29T14:20:40;6.35;;;3.00;;
65667;SDS011;52369;52.542;13.232;2023-05-29T14:23:06;5.97;;;2.53;;
65667;SDS011;52369;52.542;13.232;2023-05-29T14:25:38;5.35;;;2.30;;
65667;SDS011;52369;52.542;13.232;2023-05-29T14:28:04;5.65;;;2.55;;
65667;SDS011;52369;52.542;13.232;2023-05-29T14:30:31;5.70;;;2.50;;
65667;SDS011;52369;52.542;13.232;2023-05-29T14:32:57;6.90;;;2.70;;
65667;SDS011;52369;52.542;13.232;2023-05-29T14:35:23;7.45;;;2.97;;
65667;SDS011;52369;52.542;13.232;2023-05-29T14:37:50;14.75;;;8.68;;
65667;SDS011;52369;52.542;13.232;2023-05-29T14:40:16;23.38;;;10.18;;
65667;SDS011;52369;52.542;13.232;2023-05-29T14:42:42;9.35;;;3.78;;
65667;SDS011;52369;52.542;13.232;2023-05-29T14:45:08;3.83;;;2.33;;
65667;SDS011;52369;52.542;13.232;2023-05-29T14:47:37;6.18;;;2.65;;
65667;SDS011;52369;52.542;13.232;2023-05-29T14:50:03;5.03;;;2.10;;
65667;SDS011;52369;52.542;13.232;2023-05-29T14:52:29;8.65;;;3.45;;
65667;SDS011;52369;52.542;13.232;2023-05-29T14:54:55;4.57;;;2.72;;
65667;SDS011;52369;52.542;13.232;2023-05-29T14:57:22;3.78;;;2.20;;
65667;SDS011;52369;52.542;13.232;2023-05-29T14:59:48;4.15;;;2.17;;
65667;SDS011;52369;52.542;13.232;2023-05-29T15:02:15;8.23;;;2.90;;